Aeroporto :
LOGIN :

Iscrizione | Disclaimer

   EN    FR    IT 

 










Sommario :    VFR   VFR Marginale   IFR   IFR Intensivo   IFR Molto Intensivo
Visibilità : 
Base nubi : 
>= 8 km
>= 3000ft
5 / 8 km
1000 / 3000 ft
1500m / 5 km
500 / 1000 ft
800 / 1500m
200 / 500 ft
< 800m
< 200 ft
Simboli :   Temporali  Nebbia  Neve Forte  Precipitazioni Forti  Vento > 20 kt
SIGMETs :   Varie  Temporali  Ghiacco  Turbolenza  Onda orograficha  Ceneri Vulcaniche






- Altitudine del aeroporto : 499 ft
- Codice IATA : TLS


LFBO - Toulouse / Blagnac

ULTIMO METAR :
  • 011500Z AUTO 11016KT 080V140 9999 BKN032 14/06 Q1014 TEMPO 12023G35KT

METARs OBSOLETI :
  • 011430Z AUTO 12018KT 080V140 9999 FEW033 14/06 Q1014 TEMPO 12023G35KT
  • 011400Z AUTO 12016KT 9999 FEW034 BKN130 15/06 Q1014 TEMPO 12023G35KT
  • 011330Z AUTO 11018KT 9999 FEW034 OVC130 14/06 Q1014 TEMPO 12023G35KT
  • 011300Z AUTO 13020KT 080V150 9999 FEW035 OVC130 15/07 Q1014 TEMPO 12023G35KT
  • 011230Z AUTO 12021KT 090V150 9999 FEW035 BKN130 15/06 Q1014 TEMPO 12023G35KT

TAF TAF LFBO
Valido dal 01 a 12 ore il 02 a 18 ore UTC


011100Z 0112/0218 12018KT 9999 SCT040
TEMPO 0112/0117 12023G35KT
BECMG 0118/0120 10008KT
PROB40
TEMPO 0123/0206 BKN020
BECMG 0213/0215 30008KT BKN045
ATIS : +33 5 62 74 66 36



MetMap, La meteo Aeronautica in un colpo d'occhio ! - Copyright ORBIFLY Dicembre 2007 - Disclaimer

ORBIFLY MET'MAP TEAM :

Programmazione e sviluppo : Alexandra Zaïnal
Concezione : Baudouin d'Aumeries
Aiuto per la programmazione : Marc-Olivier Méhu
Supporto tecnico e logistico : Manuel Goepfert
Aiuto per la traduzione : Arnaldo La Scala

Contatto : metmap@orbifly.com




FONTI E CREDITI :

   NOAA